Time,TemperatureF,DewpointF,PressureIn,WindDirection,WindDirectionDegrees,WindSpeedMPH,WindSpeedGustMPH,Humidity,HourlyPrecipIn,Conditions,Clouds,dailyrainin,SolarRadiationWatts/m^2,SoftwareType,DateUTC
2013-05-09 00:00:00,59.0,55.1,30.03,East,93,0.0,3.0,87,0.00,,---,0.09,0.00,VWS V14.01,2013-05-09 04:00:00,
2013-05-09 00:01:00,59.0,55.1,30.03,WNW,284,0.0,3.0,87,0.00,,---,0.09,0.00,VWS V14.01,2013-05-09 04:01:00,
2013-05-09 00:06:00,58.9,55.0,30.03,East,93,0.0,0.0,87,0.00,,---,0.00,0.00,VWS V14.01,2013-05-09 04:06:00,
2013-05-09 00:11:00,58.5,54.7,30.03,WNW,297,0.0,1.0,87,0.00,,---,0.00,0.00,VWS V14.01,2013-05-09 04:11:00,
2013-05-09 00:16:00,58.1,54.6,30.03,WNW,297,0.0,1.0,88,0.00,,---,0.00,0.00,VWS V14.01,2013-05-09 04:16:00,
2013-05-09 00:21:00,57.7,54.5,30.03,WNW,297,0.0,1.0,89,0.00,,---,0.00,0.00,VWS V14.01,2013-05-09 04:21:00,
2013-05-09 00:26:00,57.2,54.0,30.02,WNW,297,0.0,1.0,89,0.00,,---,0.00,0.00,VWS V14.01,2013-05-09 04:26:00,
2013-05-09 00:30:00,56.7,53.8,30.03,WNW,297,0.0,1.0,90,0.00,,---,0.00,0.00,VWS V14.01,2013-05-09 04:30:00,
2013-05-09 00:31:00,56.8,53.9,30.03,WNW,297,0.0,1.0,90,0.00,,---,0.00,0.00,VWS V14.01,2013-05-09 04:31:00,
2013-05-09 00:36:00,56.4,53.8,30.03,WNW,297,0.0,0.0,91,0.00,,---,0.00,0.00,VWS V14.01,2013-05-09 04:36:00,
2013-05-09 00:41:00,55.9,53.3,30.02,WNW,297,0.0,0.0,91,0.00,,---,0.00,0.00,VWS V14.01,2013-05-09 04:41:00,
2013-05-09 00:46:00,55.6,53.0,30.02,WNW,297,0.0,0.0,91,0.00,,---,0.00,0.00,VWS V14.01,2013-05-09 04:46:00,
2013-05-09 00:51:00,55.3,53.0,30.02,WNW,297,0.0,0.0,92,0.00,,---,0.00,0.00,VWS V14.01,2013-05-09 04:51:00,
2013-05-09 00:56:00,55.0,52.7,30.02,WNW,297,0.0,0.0,92,0.00,,---,0.00,0.00,VWS V14.01,2013-05-09 04:56:00,
2013-05-09 01:00:00,54.6,52.3,30.02,WNW,297,0.0,0.0,92,0.00,,---,0.00,0.00,VWS V14.01,2013-05-09 05:00:00,
2013-05-09 01:01:00,54.6,52.3,30.02,WNW,297,0.0,0.0,92,0.00,,---,0.00,0.00,VWS V14.01,2013-05-09 05:01:00,
2013-05-09 01:06:00,54.4,52.4,30.02,WNW,297,0.0,0.0,93,0.00,,---,0.00,0.00,VWS V14.01,2013-05-09 05:06:00,
2013-05-09 01:11:00,54.1,52.1,30.01,WNW,297,0.0,0.0,93,0.00,,---,0.00,0.00,VWS V14.01,2013-05-09 05:11:00,
2013-05-09 01:16:00,53.9,51.9,30.01,WNW,297,0.0,0.0,93,0.00,,---,0.00,0.00,VWS V14.01,2013-05-09 05:16:00,
2013-05-09 01:21:00,53.7,51.7,30.01,WNW,297,0.0,0.0,93,0.00,,---,0.00,0.00,VWS V14.01,2013-05-09 05:21:00,
2013-05-09 01:26:00,53.4,51.7,30.01,WNW,297,0.0,0.0,94,0.00,,---,0.00,0.00,VWS V14.01,2013-05-09 05:26:00,
2013-05-09 01:30:00,53.1,51.4,30.01,WNW,297,0.0,0.0,94,0.00,,---,0.00,0.00,VWS V14.01,2013-05-09 05:30:00,
2013-05-09 01:31:00,53.2,51.5,30.01,WNW,297,0.0,0.0,94,0.00,,---,0.00,0.00,VWS V14.01,2013-05-09 05:31:00,
2013-05-09 01:36:00,53.0,51.3,30.01,WNW,297,0.0,0.0,94,0.00,,---,0.00,0.00,VWS V14.01,2013-05-09 05:36:00,
2013-05-09 01:41:00,52.8,51.1,30.00,WNW,297,0.0,0.0,94,0.00,,---,0.00,0.00,VWS V14.01,2013-05-09 05:41:00,
2013-05-09 01:46:00,52.6,50.9,30.00,WNW,297,0.0,0.0,94,0.00,,---,0.00,0.00,VWS V14.01,2013-05-09 05:46:00,
2013-05-09 01:51:00,52.4,50.7,30.00,WNW,297,0.0,0.0,94,0.00,,---,0.00,0.00,VWS V14.01,2013-05-09 05:51:00,
2013-05-09 01:56:00,52.3,50.6,30.00,WNW,297,0.0,0.0,94,0.00,,---,0.00,0.00,VWS V14.01,2013-05-09 05:56:00,
2013-05-09 02:00:00,52.3,50.9,30.00,WNW,297,0.0,0.0,95,0.00,,---,0.00,0.00,VWS V14.01,2013-05-09 06:00:00,
2013-05-09 02:01:00,52.3,50.9,30.00,WNW,297,0.0,0.0,95,0.00,,---,0.00,0.00,VWS V14.01,2013-05-09 06:01:00,
2013-05-09 02:06:00,52.3,50.9,30.00,WNW,297,0.0,0.0,95,0.00,,---,0.00,0.00,VWS V14.01,2013-05-09 06:06:00,
2013-05-09 02:11:00,52.3,50.9,30.00,WNW,297,0.0,0.0,95,0.00,,---,0.00,0.00,VWS V14.01,2013-05-09 06:11:00,
2013-05-09 02:16:00,52.3,50.9,30.00,WNW,297,0.0,0.0,95,0.00,,---,0.00,0.00,VWS V14.01,2013-05-09 06:16:00,
2013-05-09 02:21:00,52.2,50.8,30.00,WNW,297,0.0,0.0,95,0.00,,---,0.00,0.00,VWS V14.01,2013-05-09 06:21:00,
2013-05-09 02:26:00,52.1,50.7,29.99,WNW,297,0.0,0.0,95,0.00,,---,0.00,0.00,VWS V14.01,2013-05-09 06:26:00,
2013-05-09 02:30:00,51.9,50.5,29.99,WNW,297,0.0,0.0,95,0.00,,---,0.00,0.00,VWS V14.01,2013-05-09 06:30:00,
2013-05-09 02:31:00,51.9,50.5,29.99,WNW,297,0.0,0.0,95,0.00,,---,0.00,0.00,VWS V14.01,2013-05-09 06:31:00,
2013-05-09 02:36:00,51.8,50.4,29.99,WNW,297,0.0,0.0,95,0.00,,---,0.00,0.00,VWS V14.01,2013-05-09 06:36:00,
2013-05-09 02:41:00,51.7,50.3,29.99,WNW,297,0.0,0.0,95,0.00,,---,0.00,0.00,VWS V14.01,2013-05-09 06:41:00,
2013-05-09 02:46:00,51.4,50.0,29.99,WNW,297,0.0,0.0,95,0.00,,---,0.00,0.00,VWS V14.01,2013-05-09 06:46:00,
2013-05-09 02:51:00,51.1,49.7,29.99,WNW,297,0.0,0.0,95,0.00,,---,0.00,0.00,VWS V14.01,2013-05-09 06:51:00,
2013-05-09 02:56:00,51.2,50.1,29.99,WNW,297,0.0,0.0,96,0.00,,---,0.00,0.00,VWS V14.01,2013-05-09 06:56:00,
2013-05-09 03:00:00,51.1,50.0,29.99,WNW,297,0.0,0.0,96,0.00,,---,0.00,0.00,VWS V14.01,2013-05-09 07:00:00,
2013-05-09 03:01:00,51.1,50.0,29.99,WNW,297,0.0,0.0,96,0.00,,---,0.00,0.00,VWS V14.01,2013-05-09 07:01:00,
2013-05-09 03:06:00,51.1,50.0,29.99,WNW,297,0.0,0.0,96,0.00,,---,0.00,0.00,VWS V14.01,2013-05-09 07:06:00,
2013-05-09 03:11:00,51.2,50.1,29.99,WNW,297,0.0,0.0,96,0.00,,---,0.00,0.00,VWS V14.01,2013-05-09 07:11:00,
2013-05-09 03:16:00,51.3,50.2,29.98,WNW,297,0.0,0.0,96,0.00,,---,0.00,0.00,VWS V14.01,2013-05-09 07:16:00,
2013-05-09 03:21:00,51.3,50.2,29.98,WNW,297,0.0,0.0,96,0.00,,---,0.00,0.00,VWS V14.01,2013-05-09 07:21:00,
2013-05-09 03:26:00,51.3,50.2,29.98,WNW,297,0.0,0.0,96,0.00,,---,0.00,0.00,VWS V14.01,2013-05-09 07:26:00,
2013-05-09 03:30:00,51.2,50.1,29.98,WNW,297,0.0,0.0,96,0.00,,---,0.00,0.00,VWS V14.01,2013-05-09 07:30:00,
2013-05-09 03:31:00,51.2,50.1,29.98,WNW,297,0.0,0.0,96,0.00,,---,0.00,0.00,VWS V14.01,2013-05-09 07:31:00,
2013-05-09 03:36:00,51.3,50.2,29.98,WNW,297,0.0,0.0,96,0.00,,---,0.00,0.00,VWS V14.01,2013-05-09 07:36:00,
2013-05-09 03:41:00,51.2,50.1,29.98,WNW,297,0.0,0.0,96,0.00,,---,0.00,0.00,VWS V14.01,2013-05-09 07:41:00,
2013-05-09 03:46:00,51.2,50.1,29.98,WNW,297,0.0,0.0,96,0.00,,---,0.00,0.00,VWS V14.01,2013-05-09 07:46:00,
2013-05-09 03:51:00,51.1,50.0,29.98,WNW,297,0.0,0.0,96,0.00,,---,0.00,0.00,VWS V14.01,2013-05-09 07:51:00,
2013-05-09 03:56:00,51.0,49.9,29.98,WNW,297,0.0,0.0,96,0.00,,---,0.00,0.00,VWS V14.01,2013-05-09 07:56:00,
2013-05-09 04:00:00,51.0,49.9,29.97,WNW,297,0.0,0.0,96,0.00,,---,0.00,0.00,VWS V14.01,2013-05-09 08:00:00,
2013-05-09 04:01:00,51.0,49.9,29.97,WNW,297,0.0,0.0,96,0.00,,---,0.00,0.00,VWS V14.01,2013-05-09 08:01:00,
2013-05-09 04:06:00,51.0,49.9,29.97,WNW,297,0.0,0.0,96,0.00,,---,0.00,0.00,VWS V14.01,2013-05-09 08:06:00,
2013-05-09 04:11:00,51.0,49.9,29.97,WNW,297,0.0,0.0,96,0.00,,---,0.00,0.00,VWS V14.01,2013-05-09 08:11:00,
2013-05-09 04:16:00,51.0,50.2,29.97,WNW,297,0.0,0.0,97,0.00,,---,0.00,0.00,VWS V14.01,2013-05-09 08:16:00,
2013-05-09 04:21:00,51.0,50.2,29.97,WNW,297,0.0,0.0,97,0.00,,---,0.00,0.00,VWS V14.01,2013-05-09 08:21:00,
2013-05-09 04:26:00,51.0,50.2,29.97,WNW,297,0.0,0.0,97,0.00,,---,0.00,0.00,VWS V14.01,2013-05-09 08:26:00,
2013-05-09 04:30:00,51.0,50.2,29.97,WNW,297,0.0,0.0,97,0.00,,---,0.00,0.00,VWS V14.01,2013-05-09 08:30:00,
2013-05-09 04:31:00,51.0,50.2,29.97,WNW,297,0.0,0.0,97,0.00,,---,0.00,0.00,VWS V14.01,2013-05-09 08:31:00,
2013-05-09 04:36:00,51.1,50.3,29.97,WNW,297,0.0,0.0,97,0.00,,---,0.00,0.00,VWS V14.01,2013-05-09 08:36:00,
2013-05-09 04:41:00,51.1,50.3,29.97,WNW,297,0.0,0.0,97,0.00,,---,0.00,0.00,VWS V14.01,2013-05-09 08:41:00,
2013-05-09 04:46:00,51.2,50.4,29.97,WNW,297,0.0,0.0,97,0.00,,---,0.00,0.00,VWS V14.01,2013-05-09 08:46:00,
2013-05-09 04:51:00,51.1,50.3,29.97,WNW,297,0.0,0.0,97,0.00,,---,0.00,0.00,VWS V14.01,2013-05-09 08:51:00,
2013-05-09 04:56:00,51.2,50.4,29.97,WNW,297,0.0,0.0,97,0.00,,---,0.00,0.00,VWS V14.01,2013-05-09 08:56:00,
2013-05-09 05:00:00,51.1,50.3,29.96,WNW,297,0.0,0.0,97,0.00,,---,0.00,0.00,VWS V14.01,2013-05-09 09:00:00,
2013-05-09 05:01:00,51.1,50.3,29.96,WNW,297,0.0,0.0,97,0.00,,---,0.00,0.00,VWS V14.01,2013-05-09 09:01:00,
2013-05-09 05:06:00,51.1,50.3,29.97,WNW,297,0.0,0.0,97,0.00,,---,0.00,0.00,VWS V14.01,2013-05-09 09:06:00,
2013-05-09 05:11:00,51.0,50.2,29.96,WNW,297,0.0,0.0,97,0.00,,---,0.00,0.00,VWS V14.01,2013-05-09 09:11:00,
2013-05-09 05:16:00,51.0,50.2,29.97,WNW,297,0.0,0.0,97,0.00,,---,0.00,0.00,VWS V14.01,2013-05-09 09:16:00,
2013-05-09 05:21:00,51.1,50.3,29.97,WNW,297,0.0,0.0,97,0.00,,---,0.00,0.00,VWS V14.01,2013-05-09 09:21:00,
2013-05-09 05:26:00,51.1,50.3,29.97,WNW,297,0.0,0.0,97,0.00,,---,0.00,0.00,VWS V14.01,2013-05-09 09:26:00,
2013-05-09 05:30:00,51.1,50.3,29.97,WNW,297,0.0,0.0,97,0.00,,---,0.00,0.00,VWS V14.01,2013-05-09 09:30:00,
2013-05-09 05:31:00,51.1,50.3,29.97,WNW,297,0.0,0.0,97,0.00,,---,0.00,0.00,VWS V14.01,2013-05-09 09:31:00,
2013-05-09 05:36:00,51.0,50.2,29.97,WNW,297,0.0,0.0,97,0.00,,---,0.00,0.00,VWS V14.01,2013-05-09 09:36:00,
2013-05-09 05:41:00,51.0,50.2,29.97,WNW,297,0.0,0.0,97,0.00,,---,0.00,0.00,VWS V14.01,2013-05-09 09:41:00,
2013-05-09 05:46:00,50.9,50.1,29.97,WNW,297,0.0,0.0,97,0.00,,---,0.00,5.00,VWS V14.01,2013-05-09 09:46:00,
2013-05-09 05:51:00,50.8,50.0,29.97,WNW,297,0.0,0.0,97,0.00,,---,0.00,11.00,VWS V14.01,2013-05-09 09:51:00,
2013-05-09 05:56:00,50.6,49.8,29.97,WNW,297,0.0,0.0,97,0.00,,---,0.00,18.00,VWS V14.01,2013-05-09 09:56:00,
2013-05-09 06:00:00,50.7,49.9,29.97,WNW,297,0.0,0.0,97,0.00,,---,0.00,25.00,VWS V14.01,2013-05-09 10:00:00,
2013-05-09 06:01:00,50.7,49.9,29.97,WNW,297,0.0,0.0,97,0.00,,---,0.00,23.00,VWS V14.01,2013-05-09 10:01:00,
2013-05-09 06:06:00,50.8,50.0,29.97,WNW,297,0.0,0.0,97,0.00,,---,0.00,33.00,VWS V14.01,2013-05-09 10:06:00,
2013-05-09 06:11:00,51.0,50.2,29.97,WNW,297,0.0,0.0,97,0.00,,---,0.00,35.00,VWS V14.01,2013-05-09 10:11:00,
2013-05-09 06:16:00,51.3,50.5,29.97,WNW,297,0.0,0.0,97,0.00,,---,0.00,44.00,VWS V14.01,2013-05-09 10:16:00,
2013-05-09 06:21:00,51.7,51.2,29.97,WNW,297,0.0,0.0,98,0.00,,---,0.00,60.00,VWS V14.01,2013-05-09 10:21:00,
2013-05-09 06:26:00,52.4,51.8,29.97,North,360,0.0,3.0,98,0.00,,---,0.00,70.00,VWS V14.01,2013-05-09 10:26:00,
2013-05-09 06:30:00,52.9,52.3,29.97,NE,48,0.0,3.0,98,0.00,,---,0.00,63.00,VWS V14.01,2013-05-09 10:30:00,
2013-05-09 06:31:00,52.9,52.3,29.97,NE,48,0.0,3.0,98,0.00,,---,0.00,63.00,VWS V14.01,2013-05-09 10:31:00,
2013-05-09 06:36:00,53.2,52.7,29.97,North,11,0.0,1.0,98,0.00,,---,0.00,51.00,VWS V14.01,2013-05-09 10:36:00,
2013-05-09 06:41:00,53.3,52.5,29.97,NNE,15,0.0,2.0,97,0.00,,---,0.00,44.00,VWS V14.01,2013-05-09 10:41:00,
2013-05-09 06:46:00,53.3,52.5,29.97,NNE,15,0.0,2.0,97,0.00,,---,0.00,49.00,VWS V14.01,2013-05-09 10:46:00,
2013-05-09 06:51:00,53.4,52.6,29.97,NNE,15,0.0,2.0,97,0.00,,---,0.00,54.00,VWS V14.01,2013-05-09 10:51:00,
2013-05-09 06:56:00,53.5,52.7,29.97,NNE,15,0.0,2.0,97,0.00,,---,0.00,53.00,VWS V14.01,2013-05-09 10:56:00,
2013-05-09 07:00:00,53.5,52.7,29.97,NNE,15,0.0,2.0,97,0.00,,---,0.00,44.00,VWS V14.01,2013-05-09 11:00:00,
2013-05-09 07:01:00,53.5,52.7,29.97,NNE,15,0.0,2.0,97,0.00,,---,0.00,46.00,VWS V14.01,2013-05-09 11:01:00,
2013-05-09 07:06:00,53.6,52.8,29.98,NNE,15,0.0,0.0,97,0.00,,---,0.00,44.00,VWS V14.01,2013-05-09 11:06:00,
2013-05-09 07:11:00,53.6,52.5,29.97,NNE,15,0.0,0.0,96,0.00,,---,0.00,37.00,VWS V14.01,2013-05-09 11:11:00,
2013-05-09 07:16:00,53.7,52.6,29.97,NNE,15,0.0,0.0,96,0.00,,---,0.00,37.00,VWS V14.01,2013-05-09 11:16:00,
2013-05-09 07:21:00,53.7,52.6,29.97,NNE,15,0.0,0.0,96,0.00,,---,0.00,49.00,VWS V14.01,2013-05-09 11:21:00,
2013-05-09 07:26:00,53.8,52.7,29.97,NNE,15,0.0,0.0,96,0.00,,---,0.00,79.00,VWS V14.01,2013-05-09 11:26:00,
2013-05-09 07:30:00,53.9,52.8,29.97,NNE,15,0.0,0.0,96,0.00,,---,0.00,83.00,VWS V14.01,2013-05-09 11:30:00,
2013-05-09 07:31:00,53.9,52.8,29.97,NNE,15,0.0,0.0,96,0.00,,---,0.00,84.00,VWS V14.01,2013-05-09 11:31:00,
2013-05-09 07:36:00,54.1,53.0,29.97,NNE,15,0.0,0.0,96,0.00,,---,0.00,91.00,VWS V14.01,2013-05-09 11:36:00,
2013-05-09 07:41:00,54.4,53.3,29.97,NNE,15,0.0,0.0,96,0.00,,---,0.00,113.00,VWS V14.01,2013-05-09 11:41:00,
2013-05-09 07:46:00,54.7,53.6,29.98,NNE,15,0.0,0.0,96,0.00,,---,0.00,148.00,VWS V14.01,2013-05-09 11:46:00,
2013-05-09 07:51:00,55.2,53.8,29.98,NNE,15,0.0,0.0,95,0.00,,---,0.00,313.00,VWS V14.01,2013-05-09 11:51:00,
2013-05-09 07:56:00,55.8,54.1,29.98,NNE,15,0.0,0.0,94,0.00,,---,0.00,199.00,VWS V14.01,2013-05-09 11:56:00,
2013-05-09 08:00:00,56.4,54.4,29.98,NNE,15,0.0,0.0,93,0.00,,---,0.00,425.00,VWS V14.01,2013-05-09 12:00:00,
2013-05-09 08:01:00,56.3,54.3,29.98,NNE,15,0.0,0.0,93,0.00,,---,0.00,383.00,VWS V14.01,2013-05-09 12:01:00,
2013-05-09 08:06:00,57.1,54.8,29.98,NNE,15,0.0,2.0,92,0.00,,---,0.00,239.00,VWS V14.01,2013-05-09 12:06:00,
2013-05-09 08:11:00,57.4,54.5,29.98,NNE,15,0.0,2.0,90,0.00,,---,0.00,160.00,VWS V14.01,2013-05-09 12:11:00,
2013-05-09 08:16:00,57.6,54.4,29.98,NNE,15,0.0,2.0,89,0.00,,---,0.00,146.00,VWS V14.01,2013-05-09 12:16:00,
2013-05-09 08:21:00,57.7,54.5,29.98,NNE,15,0.0,2.0,89,0.00,,---,0.00,179.00,VWS V14.01,2013-05-09 12:21:00,
2013-05-09 08:26:00,57.8,54.6,29.98,NNE,15,0.0,2.0,89,0.00,,---,0.00,188.00,VWS V14.01,2013-05-09 12:26:00,
2013-05-09 08:30:00,58.2,55.0,29.98,NNE,15,0.0,2.0,89,0.00,,---,0.00,220.00,VWS V14.01,2013-05-09 12:30:00,
2013-05-09 08:31:00,58.2,55.0,29.98,NNE,15,0.0,2.0,89,0.00,,---,0.00,216.00,VWS V14.01,2013-05-09 12:31:00,
2013-05-09 08:36:00,58.5,54.7,29.98,NNE,15,0.0,0.0,87,0.00,,---,0.00,236.00,VWS V14.01,2013-05-09 12:36:00,
2013-05-09 08:41:00,58.6,54.1,29.98,NNE,15,0.0,0.0,85,0.00,,---,0.00,255.00,VWS V14.01,2013-05-09 12:41:00,
2013-05-09 08:46:00,58.9,54.7,29.98,NNE,15,0.0,0.0,86,0.00,,---,0.00,427.00,VWS V14.01,2013-05-09 12:46:00,
2013-05-09 08:51:00,59.6,55.4,29.98,NNE,15,0.0,1.0,86,0.00,,---,0.00,401.00,VWS V14.01,2013-05-09 12:51:00,
2013-05-09 08:56:00,60.0,54.8,29.98,NNE,15,0.0,1.0,83,0.00,,---,0.00,248.00,VWS V14.01,2013-05-09 12:56:00,
2013-05-09 09:00:00,60.3,54.8,29.98,NNE,15,0.0,1.0,82,0.00,,---,0.00,257.00,VWS V14.01,2013-05-09 13:00:00,
2013-05-09 09:01:00,60.3,54.8,29.98,NNE,15,0.0,1.0,82,0.00,,---,0.00,260.00,VWS V14.01,2013-05-09 13:01:00,
2013-05-09 09:06:00,60.5,55.3,29.97,NNE,15,0.0,0.0,83,0.00,,---,0.00,209.00,VWS V14.01,2013-05-09 13:06:00,
2013-05-09 09:11:00,60.5,55.3,29.98,East,89,0.0,3.0,83,0.00,,---,0.00,234.00,VWS V14.01,2013-05-09 13:11:00,
2013-05-09 09:16:00,60.6,55.4,29.98,East,89,0.0,3.0,83,0.00,,---,0.00,295.00,VWS V14.01,2013-05-09 13:16:00,
2013-05-09 09:21:00,60.7,55.8,29.98,East,89,0.0,3.0,84,0.00,,---,0.00,174.00,VWS V14.01,2013-05-09 13:21:00,
2013-05-09 09:26:00,60.6,55.1,29.98,East,89,0.0,3.0,82,0.00,,---,0.00,134.00,VWS V14.01,2013-05-09 13:26:00,
2013-05-09 09:30:00,60.5,55.3,29.98,East,89,0.0,3.0,83,0.00,,---,0.00,128.00,VWS V14.01,2013-05-09 13:30:00,
2013-05-09 09:31:00,60.5,55.0,29.98,East,89,0.0,3.0,82,0.00,,---,0.00,128.00,VWS V14.01,2013-05-09 13:31:00,
2013-05-09 09:36:00,60.4,55.2,29.98,East,89,0.0,0.0,83,0.00,,---,0.00,121.00,VWS V14.01,2013-05-09 13:36:00,
2013-05-09 09:41:00,60.3,55.1,29.98,East,89,0.0,0.0,83,0.00,,---,0.00,125.00,VWS V14.01,2013-05-09 13:41:00,
2013-05-09 09:46:00,60.3,55.5,29.97,East,89,0.0,0.0,84,0.00,,---,0.00,174.00,VWS V14.01,2013-05-09 13:46:00,
2013-05-09 09:51:00,60.3,55.5,29.97,East,89,0.0,0.0,84,0.00,,---,0.00,188.00,VWS V14.01,2013-05-09 13:51:00,
2013-05-09 10:00:00,60.4,55.9,29.97,East,86,0.0,0.0,85,0.00,,---,0.00,188.00,VWS V14.01,2013-05-09 14:00:00,
2013-05-09 10:01:00,60.3,55.5,29.97,East,89,0.0,0.0,84,0.00,,---,0.00,188.00,VWS V14.01,2013-05-09 14:01:00,
2013-05-09 10:06:00,60.6,56.1,29.97,East,86,0.0,0.0,85,0.00,,---,0.00,155.00,VWS V14.01,2013-05-09 14:06:00,
2013-05-09 10:11:00,60.7,55.8,29.97,East,86,0.0,1.0,84,0.00,,---,0.00,193.00,VWS V14.01,2013-05-09 14:11:00,
2013-05-09 10:16:00,60.8,56.3,29.97,East,86,0.0,2.0,85,0.00,,---,0.00,362.00,VWS V14.01,2013-05-09 14:16:00,
2013-05-09 10:21:00,61.3,56.4,29.97,East,86,0.0,3.0,84,0.00,,---,0.00,364.00,VWS V14.01,2013-05-09 14:21:00,
2013-05-09 10:26:00,61.5,56.0,29.97,East,86,0.0,3.0,82,0.00,,---,0.00,279.00,VWS V14.01,2013-05-09 14:26:00,
2013-05-09 10:30:00,61.6,55.7,29.97,East,86,0.0,3.0,81,0.00,,---,0.00,199.00,VWS V14.01,2013-05-09 14:30:00,
2013-05-09 10:31:00,61.6,55.7,29.96,East,86,0.0,3.0,81,0.00,,---,0.00,202.00,VWS V14.01,2013-05-09 14:31:00,
2013-05-09 10:36:00,61.6,56.1,29.96,NNW,329,3.0,3.0,82,0.00,,---,0.00,216.00,VWS V14.01,2013-05-09 14:36:00,
2013-05-09 10:41:00,61.9,56.3,29.96,NNW,327,0.0,3.0,82,0.00,,---,0.00,274.00,VWS V14.01,2013-05-09 14:41:00,
2013-05-09 10:46:00,61.9,56.0,29.96,NNW,327,0.0,3.0,81,0.00,,---,0.00,366.00,VWS V14.01,2013-05-09 14:46:00,
2013-05-09 10:51:00,62.3,56.4,29.96,NNW,327,0.0,3.0,81,0.00,,---,0.00,589.00,VWS V14.01,2013-05-09 14:51:00,
2013-05-09 10:56:00,63.1,57.5,29.96,NNW,327,0.0,3.0,82,0.00,,---,0.00,610.00,VWS V14.01,2013-05-09 14:56:00,
2013-05-09 11:00:00,63.6,56.6,29.96,NNW,327,0.0,3.0,78,0.00,,---,0.00,385.00,VWS V14.01,2013-05-09 15:00:00,
2013-05-09 11:01:00,63.6,56.6,29.96,NNW,327,0.0,3.0,78,0.00,,---,0.00,366.00,VWS V14.01,2013-05-09 15:01:00,
2013-05-09 11:06:00,63.7,56.0,29.96,NNW,327,0.0,0.0,76,0.00,,---,0.00,329.00,VWS V14.01,2013-05-09 15:06:00,
2013-05-09 11:11:00,63.7,56.4,29.96,NNW,327,0.0,0.0,77,0.00,,---,0.00,258.00,VWS V14.01,2013-05-09 15:11:00,
2013-05-09 11:16:00,63.9,56.6,29.96,NNW,327,0.0,0.0,77,0.00,,---,0.00,221.00,VWS V14.01,2013-05-09 15:16:00,
2013-05-09 11:21:00,63.8,55.4,29.96,NNW,327,0.0,0.0,74,0.00,,---,0.00,153.00,VWS V14.01,2013-05-09 15:21:00,
2013-05-09 11:26:00,63.7,56.0,29.96,NE,40,0.0,2.0,76,0.00,,---,0.00,121.00,VWS V14.01,2013-05-09 15:26:00,
2013-05-09 11:30:00,63.5,56.5,29.96,NE,40,0.0,2.0,78,0.00,,---,0.00,56.00,VWS V14.01,2013-05-09 15:30:00,
2013-05-09 11:31:00,63.6,56.6,29.96,NE,40,0.0,2.0,78,0.00,,---,0.00,70.00,VWS V14.01,2013-05-09 15:31:00,
2013-05-09 11:36:00,63.1,56.5,29.96,East,89,5.0,5.0,79,0.00,,---,0.00,46.00,VWS V14.01,2013-05-09 15:36:00,
2013-05-09 11:41:00,62.2,56.3,29.96,East,89,0.0,5.0,81,0.01,,---,0.01,86.00,VWS V14.01,2013-05-09 15:41:00,
2013-05-09 11:46:00,61.6,56.4,29.96,East,89,0.0,5.0,83,0.01,,---,0.01,137.00,VWS V14.01,2013-05-09 15:46:00,
2013-05-09 11:51:00,61.1,56.6,29.97,East,89,0.0,5.0,85,0.01,,---,0.01,130.00,VWS V14.01,2013-05-09 15:51:00,
2013-05-09 11:56:00,60.9,56.7,29.97,East,89,0.0,5.0,86,0.01,,---,0.01,137.00,VWS V14.01,2013-05-09 15:56:00,
2013-05-09 12:00:00,60.7,57.1,29.96,East,89,0.0,5.0,88,0.01,,---,0.01,169.00,VWS V14.01,2013-05-09 16:00:00,
2013-05-09 12:01:00,60.7,57.1,29.96,East,89,0.0,5.0,88,0.01,,---,0.01,167.00,VWS V14.01,2013-05-09 16:01:00,
2013-05-09 12:06:00,60.6,57.3,29.97,East,89,0.0,0.0,89,0.01,,---,0.01,149.00,VWS V14.01,2013-05-09 16:06:00,
2013-05-09 12:11:00,60.5,56.9,29.97,East,89,0.0,0.0,88,0.02,,---,0.02,153.00,VWS V14.01,2013-05-09 16:11:00,
2013-05-09 12:16:00,60.4,57.2,29.96,East,89,0.0,0.0,89,0.03,,---,0.03,162.00,VWS V14.01,2013-05-09 16:16:00,
2013-05-09 12:21:00,60.3,57.0,29.97,East,89,0.0,0.0,89,0.04,,---,0.04,162.00,VWS V14.01,2013-05-09 16:21:00,
2013-05-09 12:26:00,60.2,57.0,29.96,East,89,0.0,0.0,89,0.05,,---,0.05,207.00,VWS V14.01,2013-05-09 16:26:00,
2013-05-09 12:30:00,60.2,57.3,29.96,East,89,0.0,0.0,90,0.05,,---,0.05,290.00,VWS V14.01,2013-05-09 16:30:00,
2013-05-09 12:31:00,60.2,57.3,29.96,East,89,0.0,0.0,90,0.05,,---,0.05,292.00,VWS V14.01,2013-05-09 16:31:00,
2013-05-09 12:36:00,60.3,57.4,29.96,East,89,0.0,0.0,90,0.05,,---,0.05,272.00,VWS V14.01,2013-05-09 16:36:00,
2013-05-09 12:41:00,60.5,57.6,29.96,East,89,0.0,0.0,90,0.05,,---,0.05,267.00,VWS V14.01,2013-05-09 16:41:00,
2013-05-09 12:46:00,60.7,58.1,29.96,East,89,0.0,0.0,91,0.05,,---,0.05,258.00,VWS V14.01,2013-05-09 16:46:00,
2013-05-09 12:51:00,60.7,58.1,29.95,East,89,0.0,0.0,91,0.05,,---,0.05,216.00,VWS V14.01,2013-05-09 16:51:00,
2013-05-09 12:56:00,60.5,57.9,29.95,East,89,0.0,0.0,91,0.05,,---,0.05,229.00,VWS V14.01,2013-05-09 16:56:00,
2013-05-09 13:00:00,60.6,58.0,29.95,East,89,0.0,1.0,91,0.05,,---,0.05,232.00,VWS V14.01,2013-05-09 17:00:00,
2013-05-09 13:01:00,60.6,58.0,29.95,East,89,0.0,1.0,91,0.05,,---,0.05,236.00,VWS V14.01,2013-05-09 17:01:00,
2013-05-09 13:06:00,60.5,57.6,29.95,East,89,0.0,0.0,90,0.04,,---,0.05,221.00,VWS V14.01,2013-05-09 17:06:00,
2013-05-09 13:11:00,60.4,57.5,29.95,East,89,0.0,0.0,90,0.04,,---,0.05,230.00,VWS V14.01,2013-05-09 17:11:00,
2013-05-09 13:16:00,60.4,57.5,29.95,East,89,0.0,0.0,90,0.04,,---,0.05,171.00,VWS V14.01,2013-05-09 17:16:00,
2013-05-09 13:21:00,60.5,57.6,29.95,East,89,0.0,0.0,90,0.04,,---,0.05,130.00,VWS V14.01,2013-05-09 17:21:00,
2013-05-09 13:26:00,60.6,57.3,29.95,East,89,0.0,0.0,89,0.04,,---,0.05,118.00,VWS V14.01,2013-05-09 17:26:00,
2013-05-09 13:30:00,60.7,57.8,29.95,East,89,0.0,0.0,90,0.04,,---,0.05,113.00,VWS V14.01,2013-05-09 17:30:00,
2013-05-09 13:31:00,60.7,57.8,29.95,East,89,0.0,0.0,90,0.04,,---,0.05,113.00,VWS V14.01,2013-05-09 17:31:00,
2013-05-09 13:36:00,60.6,57.7,29.95,East,89,0.0,0.0,90,0.01,,---,0.06,132.00,VWS V14.01,2013-05-09 17:36:00,
2013-05-09 13:41:00,60.4,57.8,29.94,East,89,0.0,0.0,91,0.02,,---,0.07,193.00,VWS V14.01,2013-05-09 17:41:00,
2013-05-09 13:46:00,60.2,57.6,29.94,East,89,0.0,0.0,91,0.02,,---,0.07,246.00,VWS V14.01,2013-05-09 17:46:00,
2013-05-09 13:51:00,60.2,57.6,29.94,East,89,0.0,0.0,91,0.02,,---,0.07,244.00,VWS V14.01,2013-05-09 17:51:00,
2013-05-09 13:56:00,60.2,57.6,29.94,East,89,0.0,0.0,91,0.02,,---,0.07,230.00,VWS V14.01,2013-05-09 17:56:00,
2013-05-09 14:00:00,60.3,57.7,29.94,East,89,0.0,0.0,91,0.02,,---,0.07,202.00,VWS V14.01,2013-05-09 18:00:00,
2013-05-09 14:01:00,60.3,57.7,29.94,East,89,0.0,0.0,91,0.02,,---,0.07,207.00,VWS V14.01,2013-05-09 18:01:00,
2013-05-09 14:06:00,60.4,57.8,29.94,East,89,0.0,0.0,91,0.02,,---,0.07,171.00,VWS V14.01,2013-05-09 18:06:00,
2013-05-09 14:11:00,60.4,57.5,29.94,East,89,0.0,0.0,90,0.02,,---,0.07,123.00,VWS V14.01,2013-05-09 18:11:00,
2013-05-09 14:16:00,60.5,57.9,29.94,East,89,0.0,0.0,91,0.02,,---,0.07,95.00,VWS V14.01,2013-05-09 18:16:00,
2013-05-09 14:21:00,60.6,58.0,29.94,East,89,0.0,0.0,91,0.03,,---,0.08,97.00,VWS V14.01,2013-05-09 18:21:00,
2013-05-09 14:26:00,60.5,58.2,29.94,East,89,0.0,0.0,92,0.05,,---,0.10,118.00,VWS V14.01,2013-05-09 18:26:00,
2013-05-09 14:30:00,60.4,58.1,29.93,East,89,0.0,0.0,92,0.08,,---,0.13,163.00,VWS V14.01,2013-05-09 18:30:00,
2013-05-09 14:31:00,60.4,58.1,29.93,East,89,0.0,0.0,92,0.07,,---,0.12,156.00,VWS V14.01,2013-05-09 18:31:00,
2013-05-09 14:36:00,60.2,57.9,29.93,East,89,0.0,0.0,92,0.09,,---,0.14,193.00,VWS V14.01,2013-05-09 18:36:00,
2013-05-09 14:41:00,60.3,58.3,29.93,East,89,0.0,0.0,93,0.10,,---,0.15,221.00,VWS V14.01,2013-05-09 18:41:00,
2013-05-09 14:46:00,60.4,58.7,29.93,East,89,0.0,0.0,94,0.10,,---,0.15,248.00,VWS V14.01,2013-05-09 18:46:00,
2013-05-09 14:51:00,60.5,58.8,29.93,East,89,0.0,0.0,94,0.10,,---,0.15,272.00,VWS V14.01,2013-05-09 18:51:00,
2013-05-09 14:56:00,60.7,59.0,29.93,East,89,0.0,0.0,94,0.10,,---,0.15,294.00,VWS V14.01,2013-05-09 18:56:00,
2013-05-09 15:00:00,61.0,59.6,29.92,East,89,0.0,0.0,95,0.10,,---,0.15,325.00,VWS V14.01,2013-05-09 19:00:00,
2013-05-09 15:01:00,60.9,59.5,29.92,East,89,0.0,0.0,95,0.10,,---,0.15,330.00,VWS V14.01,2013-05-09 19:01:00,
2013-05-09 15:06:00,61.0,59.3,29.92,East,89,0.0,0.0,94,0.08,,---,0.15,338.00,VWS V14.01,2013-05-09 19:06:00,
2013-05-09 15:11:00,61.1,59.4,29.92,East,89,0.0,0.0,94,0.08,,---,0.15,320.00,VWS V14.01,2013-05-09 19:11:00,
2013-05-09 15:16:00,61.0,59.0,29.92,East,89,0.0,2.0,93,0.08,,---,0.15,306.00,VWS V14.01,2013-05-09 19:16:00,
2013-05-09 15:21:00,61.0,58.7,29.91,East,89,0.0,2.0,92,0.08,,---,0.15,315.00,VWS V14.01,2013-05-09 19:21:00,
2013-05-09 15:26:00,61.2,58.9,29.91,East,89,0.0,2.0,92,0.08,,---,0.15,334.00,VWS V14.01,2013-05-09 19:26:00,
2013-05-09 15:30:00,61.3,58.7,29.91,East,89,0.0,2.0,91,0.08,,---,0.15,336.00,VWS V14.01,2013-05-09 19:30:00,
2013-05-09 15:31:00,61.3,59.0,29.91,East,89,0.0,2.0,92,0.08,,---,0.15,341.00,VWS V14.01,2013-05-09 19:31:00,
2013-05-09 15:36:00,61.3,58.3,29.91,East,89,0.0,0.0,90,0.02,,---,0.15,339.00,VWS V14.01,2013-05-09 19:36:00,
2013-05-09 15:41:00,61.4,58.8,29.91,East,89,0.0,0.0,91,0.02,,---,0.15,350.00,VWS V14.01,2013-05-09 19:41:00,
2013-05-09 15:46:00,61.6,59.0,29.90,East,89,0.0,0.0,91,0.02,,---,0.15,362.00,VWS V14.01,2013-05-09 19:46:00,
2013-05-09 15:51:00,61.9,58.9,29.90,East,89,0.0,2.0,90,0.02,,---,0.15,357.00,VWS V14.01,2013-05-09 19:51:00,
2013-05-09 15:56:00,62.0,58.7,29.90,East,89,0.0,2.0,89,0.02,,---,0.15,362.00,VWS V14.01,2013-05-09 19:56:00,
2013-05-09 16:00:00,62.4,58.8,29.90,East,89,0.0,3.0,88,0.02,,---,0.15,373.00,VWS V14.01,2013-05-09 20:00:00,
2013-05-09 16:01:00,62.3,58.7,29.90,East,89,2.0,3.0,88,0.02,,---,0.15,364.00,VWS V14.01,2013-05-09 20:01:00,
2013-05-09 16:06:00,62.7,58.8,29.90,East,89,0.0,0.0,87,0.00,,---,0.15,422.00,VWS V14.01,2013-05-09 20:06:00,
2013-05-09 16:11:00,63.1,59.5,29.90,East,89,0.0,1.0,88,0.00,,---,0.15,462.00,VWS V14.01,2013-05-09 20:11:00,
2013-05-09 16:16:00,63.2,59.0,29.89,NE,44,0.0,1.0,86,0.00,,---,0.15,454.00,VWS V14.01,2013-05-09 20:16:00,
2013-05-09 16:21:00,63.5,59.2,29.89,NE,44,0.0,1.0,86,0.00,,---,0.15,411.00,VWS V14.01,2013-05-09 20:21:00,
2013-05-09 16:26:00,63.8,58.9,29.89,NE,45,1.0,3.0,84,0.00,,---,0.15,424.00,VWS V14.01,2013-05-09 20:26:00,
2013-05-09 16:30:00,64.1,59.5,29.89,NE,45,0.0,3.0,85,0.00,,---,0.15,448.00,VWS V14.01,2013-05-09 20:30:00,
2013-05-09 16:31:00,64.0,59.1,29.89,NE,45,0.0,3.0,84,0.00,,---,0.15,446.00,VWS V14.01,2013-05-09 20:31:00,
2013-05-09 16:36:00,63.9,58.6,29.90,NE,45,0.0,0.0,83,0.00,,---,0.15,464.00,VWS V14.01,2013-05-09 20:36:00,
2013-05-09 16:41:00,64.0,58.4,29.90,NE,45,0.0,1.0,82,0.00,,---,0.15,464.00,VWS V14.01,2013-05-09 20:41:00,
2013-05-09 16:46:00,64.0,58.1,29.90,NE,45,0.0,1.0,81,0.00,,---,0.15,520.00,VWS V14.01,2013-05-09 20:46:00,
2013-05-09 16:51:00,64.1,58.5,29.90,NE,45,0.0,1.0,82,0.00,,---,0.15,524.00,VWS V14.01,2013-05-09 20:51:00,
2013-05-09 16:56:00,64.6,59.0,29.90,NE,45,0.0,1.0,82,0.00,,---,0.15,339.00,VWS V14.01,2013-05-09 20:56:00,
2013-05-09 17:00:00,64.6,57.6,29.90,NE,45,0.0,1.0,78,0.00,,---,0.15,265.00,VWS V14.01,2013-05-09 21:00:00,
2013-05-09 17:01:00,64.6,57.6,29.90,NE,45,0.0,1.0,78,0.00,,---,0.15,274.00,VWS V14.01,2013-05-09 21:01:00,
2013-05-09 17:06:00,64.7,58.0,29.90,NE,45,0.0,1.0,79,0.00,,---,0.15,237.00,VWS V14.01,2013-05-09 21:06:00,
2013-05-09 17:11:00,64.5,57.5,29.90,NE,45,0.0,1.0,78,0.00,,---,0.15,248.00,VWS V14.01,2013-05-09 21:11:00,
2013-05-09 17:16:00,64.6,57.6,29.90,NE,45,0.0,1.0,78,0.00,,---,0.15,257.00,VWS V14.01,2013-05-09 21:16:00,
2013-05-09 17:21:00,64.8,57.4,29.90,NE,45,0.0,1.0,77,0.00,,---,0.15,246.00,VWS V14.01,2013-05-09 21:21:00,
2013-05-09 17:26:00,64.9,58.2,29.89,NE,45,0.0,1.0,79,0.00,,---,0.15,221.00,VWS V14.01,2013-05-09 21:26:00,
2013-05-09 17:30:00,65.0,58.3,29.89,NE,45,0.0,1.0,79,0.00,,---,0.15,174.00,VWS V14.01,2013-05-09 21:30:00,
2013-05-09 17:31:00,65.0,57.6,29.89,NE,45,0.0,1.0,77,0.00,,---,0.15,181.00,VWS V14.01,2013-05-09 21:31:00,
2013-05-09 17:36:00,65.0,58.0,29.89,NE,45,0.0,0.0,78,0.00,,---,0.15,158.00,VWS V14.01,2013-05-09 21:36:00,
2013-05-09 17:41:00,64.9,57.5,29.89,NE,45,0.0,0.0,77,0.00,,---,0.15,130.00,VWS V14.01,2013-05-09 21:41:00,
2013-05-09 17:46:00,64.9,58.2,29.89,NE,45,0.0,0.0,79,0.00,,---,0.15,290.00,VWS V14.01,2013-05-09 21:46:00,
2013-05-09 17:51:00,64.9,58.2,29.89,NE,45,0.0,0.0,79,0.00,,---,0.15,190.00,VWS V14.01,2013-05-09 21:51:00,
2013-05-09 17:56:00,64.9,58.6,29.89,NE,45,0.0,0.0,80,0.00,,---,0.15,149.00,VWS V14.01,2013-05-09 21:56:00,
2013-05-09 18:00:00,64.8,58.5,29.89,NE,44,0.0,0.0,80,0.00,,---,0.15,90.00,VWS V14.01,2013-05-09 22:00:00,
2013-05-09 18:01:00,64.8,57.8,29.89,NE,44,0.0,0.0,78,0.00,,---,0.15,95.00,VWS V14.01,2013-05-09 22:01:00,
2013-05-09 18:06:00,64.5,58.2,29.89,NE,44,0.0,0.0,80,0.00,,---,0.15,76.00,VWS V14.01,2013-05-09 22:06:00,
2013-05-09 18:11:00,64.4,58.5,29.89,NE,44,0.0,0.0,81,0.00,,---,0.15,100.00,VWS V14.01,2013-05-09 22:11:00,
2013-05-09 18:16:00,64.3,58.0,29.89,NE,44,0.0,0.0,80,0.00,,---,0.15,72.00,VWS V14.01,2013-05-09 22:16:00,
2013-05-09 18:21:00,64.3,58.7,29.89,NE,44,0.0,0.0,82,0.00,,---,0.15,54.00,VWS V14.01,2013-05-09 22:21:00,
2013-05-09 18:26:00,64.1,58.5,29.90,NE,44,0.0,0.0,82,0.00,,---,0.15,56.00,VWS V14.01,2013-05-09 22:26:00,
2013-05-09 18:30:00,63.9,58.6,29.89,NE,44,0.0,0.0,83,0.00,,---,0.15,139.00,VWS V14.01,2013-05-09 22:30:00,
2013-05-09 18:31:00,63.9,58.3,29.89,NE,44,0.0,0.0,82,0.00,,---,0.15,146.00,VWS V14.01,2013-05-09 22:31:00,
2013-05-09 18:36:00,63.8,58.5,29.89,NE,44,0.0,0.0,83,0.00,,---,0.15,77.00,VWS V14.01,2013-05-09 22:36:00,
2013-05-09 18:41:00,63.7,58.5,29.89,NE,44,0.0,0.0,83,0.00,,---,0.15,67.00,VWS V14.01,2013-05-09 22:41:00,
2013-05-09 18:46:00,63.6,58.3,29.89,NE,44,0.0,0.0,83,0.00,,---,0.15,69.00,VWS V14.01,2013-05-09 22:46:00,
2013-05-09 18:51:00,63.6,58.3,29.90,NE,44,0.0,0.0,83,0.00,,---,0.15,77.00,VWS V14.01,2013-05-09 22:51:00,
2013-05-09 18:56:00,63.4,58.5,29.90,NE,44,0.0,0.0,84,0.00,,---,0.15,76.00,VWS V14.01,2013-05-09 22:56:00,
2013-05-09 19:00:00,63.2,58.0,29.90,NE,44,0.0,0.0,83,0.00,,---,0.15,54.00,VWS V14.01,2013-05-09 23:00:00,
2013-05-09 19:01:00,63.3,58.1,29.90,NE,44,0.0,0.0,83,0.00,,---,0.15,63.00,VWS V14.01,2013-05-09 23:01:00,
2013-05-09 19:06:00,63.2,58.0,29.90,NE,44,0.0,0.0,83,0.00,,---,0.15,47.00,VWS V14.01,2013-05-09 23:06:00,
2013-05-09 19:11:00,63.1,58.2,29.91,NE,44,0.0,0.0,84,0.00,,---,0.15,40.00,VWS V14.01,2013-05-09 23:11:00,
2013-05-09 19:16:00,63.0,58.4,29.91,NE,44,0.0,0.0,85,0.00,,---,0.15,30.00,VWS V14.01,2013-05-09 23:16:00,
2013-05-09 19:21:00,62.9,58.3,29.91,NE,44,0.0,0.0,85,0.00,,---,0.15,30.00,VWS V14.01,2013-05-09 23:21:00,
2013-05-09 19:26:00,62.8,58.6,29.91,NE,44,0.0,0.0,86,0.00,,---,0.15,26.00,VWS V14.01,2013-05-09 23:26:00,
2013-05-09 19:30:00,62.6,57.7,29.92,NE,44,0.0,0.0,84,0.00,,---,0.15,28.00,VWS V14.01,2013-05-09 23:30:00,
2013-05-09 19:31:00,62.6,57.7,29.92,NE,44,0.0,0.0,84,0.00,,---,0.15,30.00,VWS V14.01,2013-05-09 23:31:00,
2013-05-09 19:36:00,62.5,57.9,29.92,NE,44,0.0,0.0,85,0.00,,---,0.15,23.00,VWS V14.01,2013-05-09 23:36:00,
2013-05-09 19:41:00,62.3,57.4,29.92,NE,44,0.0,0.0,84,0.00,,---,0.15,16.00,VWS V14.01,2013-05-09 23:41:00,
2013-05-09 19:46:00,62.1,57.2,29.92,NE,44,0.0,0.0,84,0.00,,---,0.15,11.00,VWS V14.01,2013-05-09 23:46:00,
2013-05-09 19:51:00,61.9,57.3,29.92,NE,44,0.0,0.0,85,0.00,,---,0.15,7.00,VWS V14.01,2013-05-09 23:51:00,
2013-05-09 19:56:00,61.7,57.5,29.92,NE,44,0.0,0.0,86,0.00,,---,0.15,5.00,VWS V14.01,2013-05-09 23:56:00,
2013-05-09 20:00:00,61.4,57.5,29.92,NE,44,0.0,0.0,87,0.00,,---,0.15,0.00,VWS V14.01,2013-05-10 00:00:00,
2013-05-09 20:01:00,61.4,57.2,29.92,NE,44,0.0,0.0,86,0.00,,---,0.15,0.00,VWS V14.01,2013-05-10 00:01:00,
2013-05-09 20:06:00,61.1,57.2,29.93,NE,44,0.0,0.0,87,0.00,,---,0.15,0.00,VWS V14.01,2013-05-10 00:06:00,
2013-05-09 20:11:00,60.9,57.3,29.92,NE,44,0.0,0.0,88,0.00,,---,0.15,0.00,VWS V14.01,2013-05-10 00:11:00,
2013-05-09 20:16:00,60.6,57.0,29.93,NE,44,0.0,0.0,88,0.00,,---,0.15,0.00,VWS V14.01,2013-05-10 00:16:00,
2013-05-09 20:21:00,60.3,57.0,29.93,NE,44,0.0,0.0,89,0.00,,---,0.15,0.00,VWS V14.01,2013-05-10 00:21:00,
2013-05-09 20:26:00,60.0,56.8,29.93,NE,44,0.0,0.0,89,0.00,,---,0.15,0.00,VWS V14.01,2013-05-10 00:26:00,
2013-05-09 20:30:00,59.7,56.8,29.93,NE,44,0.0,0.0,90,0.00,,---,0.15,0.00,VWS V14.01,2013-05-10 00:30:00,
2013-05-09 20:31:00,59.7,56.8,29.93,NE,44,0.0,0.0,90,0.00,,---,0.15,0.00,VWS V14.01,2013-05-10 00:31:00,
2013-05-09 20:36:00,59.5,56.6,29.93,NE,44,0.0,0.0,90,0.00,,---,0.15,0.00,VWS V14.01,2013-05-10 00:36:00,
2013-05-09 20:41:00,59.3,56.4,29.93,NE,44,0.0,0.0,90,0.00,,---,0.15,0.00,VWS V14.01,2013-05-10 00:41:00,
2013-05-09 20:46:00,59.2,56.6,29.93,NE,44,0.0,0.0,91,0.00,,---,0.15,0.00,VWS V14.01,2013-05-10 00:46:00,
2013-05-09 20:51:00,59.0,56.4,29.93,NE,44,0.0,0.0,91,0.00,,---,0.15,0.00,VWS V14.01,2013-05-10 00:51:00,
2013-05-09 20:56:00,58.9,56.6,29.94,NE,44,0.0,0.0,92,0.00,,---,0.15,0.00,VWS V14.01,2013-05-10 00:56:00,
2013-05-09 21:00:00,58.7,56.4,29.94,NE,44,0.0,0.0,92,0.00,,---,0.15,0.00,VWS V14.01,2013-05-10 01:00:00,
2013-05-09 21:01:00,58.7,56.4,29.94,NE,44,0.0,0.0,92,0.00,,---,0.15,0.00,VWS V14.01,2013-05-10 01:01:00,
2013-05-09 21:06:00,58.6,56.3,29.94,NE,44,0.0,0.0,92,0.00,,---,0.15,0.00,VWS V14.01,2013-05-10 01:06:00,
2013-05-09 21:11:00,58.5,56.2,29.94,NE,44,0.0,0.0,92,0.00,,---,0.15,0.00,VWS V14.01,2013-05-10 01:11:00,
2013-05-09 21:16:00,58.4,56.4,29.94,NE,44,0.0,0.0,93,0.00,,---,0.15,0.00,VWS V14.01,2013-05-10 01:16:00,
2013-05-09 21:21:00,58.3,56.3,29.94,NE,44,0.0,0.0,93,0.00,,---,0.15,0.00,VWS V14.01,2013-05-10 01:21:00,
2013-05-09 21:26:00,58.2,56.2,29.94,NE,44,0.0,0.0,93,0.00,,---,0.15,0.00,VWS V14.01,2013-05-10 01:26:00,
2013-05-09 21:30:00,58.0,56.0,29.94,NE,44,0.0,0.0,93,0.00,,---,0.15,0.00,VWS V14.01,2013-05-10 01:30:00,
2013-05-09 21:31:00,58.0,56.0,29.94,NE,44,0.0,0.0,93,0.00,,---,0.15,0.00,VWS V14.01,2013-05-10 01:31:00,
2013-05-09 21:36:00,57.8,55.8,29.94,NE,44,0.0,0.0,93,0.00,,---,0.15,0.00,VWS V14.01,2013-05-10 01:36:00,
2013-05-09 21:41:00,57.8,56.1,29.95,NE,44,0.0,0.0,94,0.00,,---,0.15,0.00,VWS V14.01,2013-05-10 01:41:00,
2013-05-09 21:46:00,57.7,56.0,29.95,NE,44,0.0,0.0,94,0.00,,---,0.15,0.00,VWS V14.01,2013-05-10 01:46:00,
2013-05-09 21:51:00,57.6,55.9,29.95,NE,44,0.0,0.0,94,0.00,,---,0.15,0.00,VWS V14.01,2013-05-10 01:51:00,
2013-05-09 21:56:00,57.4,55.7,29.95,NE,44,0.0,0.0,94,0.00,,---,0.15,0.00,VWS V14.01,2013-05-10 01:56:00,
2013-05-09 22:00:00,57.3,55.6,29.95,NE,44,0.0,0.0,94,0.00,,---,0.15,0.00,VWS V14.01,2013-05-10 02:00:00,
2013-05-09 22:01:00,57.3,55.6,29.94,NE,44,0.0,0.0,94,0.00,,---,0.15,0.00,VWS V14.01,2013-05-10 02:01:00,
2013-05-09 22:06:00,57.2,55.5,29.94,NE,44,0.0,0.0,94,0.00,,---,0.15,0.00,VWS V14.01,2013-05-10 02:06:00,
2013-05-09 22:11:00,57.0,55.3,29.95,NE,44,0.0,0.0,94,0.00,,---,0.15,0.00,VWS V14.01,2013-05-10 02:11:00,
2013-05-09 22:16:00,56.8,55.4,29.95,NE,44,0.0,0.0,95,0.00,,---,0.15,0.00,VWS V14.01,2013-05-10 02:16:00,
2013-05-09 22:21:00,56.7,55.0,29.95,NE,44,0.0,0.0,94,0.00,,---,0.15,0.00,VWS V14.01,2013-05-10 02:21:00,
2013-05-09 22:26:00,56.5,54.8,29.95,NE,44,0.0,0.0,94,0.00,,---,0.15,0.00,VWS V14.01,2013-05-10 02:26:00,
2013-05-09 22:30:00,56.2,54.8,29.95,NE,44,0.0,0.0,95,0.00,,---,0.15,0.00,VWS V14.01,2013-05-10 02:30:00,
2013-05-09 22:31:00,56.3,54.9,29.95,NE,44,0.0,0.0,95,0.00,,---,0.15,0.00,VWS V14.01,2013-05-10 02:31:00,
2013-05-09 22:36:00,56.1,54.4,29.95,NE,44,0.0,0.0,94,0.00,,---,0.15,0.00,VWS V14.01,2013-05-10 02:36:00,
2013-05-09 22:41:00,55.9,54.5,29.95,NE,44,0.0,0.0,95,0.00,,---,0.15,0.00,VWS V14.01,2013-05-10 02:41:00,
2013-05-09 22:46:00,55.7,54.3,29.95,NE,44,0.0,0.0,95,0.00,,---,0.15,0.00,VWS V14.01,2013-05-10 02:46:00,
2013-05-09 22:51:00,55.4,54.0,29.95,NE,44,0.0,0.0,95,0.00,,---,0.15,0.00,VWS V14.01,2013-05-10 02:51:00,
2013-05-09 22:56:00,55.1,53.7,29.95,NE,44,0.0,0.0,95,0.00,,---,0.15,0.00,VWS V14.01,2013-05-10 02:56:00,
2013-05-09 23:00:00,54.9,53.5,29.95,NE,44,0.0,0.0,95,0.00,,---,0.15,0.00,VWS V14.01,2013-05-10 03:00:00,
2013-05-09 23:01:00,54.9,53.5,29.95,NE,44,0.0,0.0,95,0.00,,---,0.15,0.00,VWS V14.01,2013-05-10 03:01:00,
2013-05-09 23:06:00,54.7,53.3,29.95,NE,44,0.0,0.0,95,0.00,,---,0.15,0.00,VWS V14.01,2013-05-10 03:06:00,
2013-05-09 23:11:00,54.5,53.1,29.95,NE,44,0.0,0.0,95,0.00,,---,0.15,0.00,VWS V14.01,2013-05-10 03:11:00,
2013-05-09 23:16:00,54.4,53.0,29.95,NE,44,0.0,0.0,95,0.00,,---,0.15,0.00,VWS V14.01,2013-05-10 03:16:00,
2013-05-09 23:21:00,54.1,52.7,29.95,NE,44,0.0,0.0,95,0.00,,---,0.15,0.00,VWS V14.01,2013-05-10 03:21:00,
2013-05-09 23:26:00,54.0,52.6,29.95,NE,44,0.0,0.0,95,0.00,,---,0.15,0.00,VWS V14.01,2013-05-10 03:26:00,
2013-05-09 23:30:00,53.8,52.4,29.95,NE,44,0.0,0.0,95,0.00,,---,0.15,0.00,VWS V14.01,2013-05-10 03:30:00,
2013-05-09 23:31:00,53.9,52.5,29.95,NE,44,0.0,0.0,95,0.00,,---,0.15,0.00,VWS V14.01,2013-05-10 03:31:00,
2013-05-09 23:36:00,53.6,52.2,29.95,NE,44,0.0,0.0,95,0.00,,---,0.15,0.00,VWS V14.01,2013-05-10 03:36:00,
2013-05-09 23:41:00,53.2,51.8,29.95,NE,44,0.0,0.0,95,0.00,,---,0.15,0.00,VWS V14.01,2013-05-10 03:41:00,
2013-05-09 23:46:00,53.2,51.8,29.95,NE,44,0.0,0.0,95,0.00,,---,0.15,0.00,VWS V14.01,2013-05-10 03:46:00,
2013-05-09 23:51:00,53.1,51.7,29.95,NE,44,0.0,0.0,95,0.00,,---,0.15,0.00,VWS V14.01,2013-05-10 03:51:00,
2013-05-09 23:56:00,53.0,51.9,29.95,NE,44,0.0,0.0,96,0.00,,---,0.15,0.00,VWS V14.01,2013-05-10 03:56:00,